• Join FlightAware (Why Join?)
  • Login
  • US Flag 
03:59PM EDT


 

Airport Tracker/Info


-or-


 

Live Flight TrackerFlight Track Log ✈ N2214D ✈ 04-Aug-2013 ✈ KLEX - KCPS

Flight Track Log - Related Links

Times and Time Zones

All times are in EDT time to prevent confusion due to time zone crossing. See the N2214D flight status page for this flight to view local times or setup timezone preferences in your user account.

Time Position Orientation Groundspeed Altitude Reporting Facility
EDT Latitude Longitude Course Direction KTS MPH feet Rate Location/Type
10:56AM 38.0875 -84.6222 275° West 118 136 3,200  Level Indianapolis Center
10:57AM 38.0875 -84.6714 270° West 117 135 4,000 720 Climbing Indianapolis Center
10:58AM 38.0900 -84.7089 275° West 113 130 4,700 660 Climbing Indianapolis Center
10:59AM 38.0947 -84.7442 280° West 109 125 5,400 660 Climbing Indianapolis Center
11:00AM 38.0643 -84.8503 280° West  Level FlightAware Approximate
11:00AM 38.0983 -84.7836 277° West 109 125 6,100  Level Indianapolis Center
11:01AM 38.0684 -84.8922 275° West  Level FlightAware Approximate
11:01AM 38.1050 -84.8339 280° West 188 216 6,200  Level Indianapolis Center
11:02AM 38.1083 -84.8681 277° West 120 138 6,100 -60 Descending Indianapolis Center
11:03AM 38.1147 -84.9133 280° West 116 133 6,100  Level Indianapolis Center
11:04AM 38.1189 -84.9528 278° West 115 132 6,200  Climbing Indianapolis Center
11:05AM 38.1231 -84.9953 277° West 117 135 6,200 -60 Level Indianapolis Center
11:06AM 38.1278 -85.0369 278° West 118 136 6,100 -60 Descending Indianapolis Center
11:07AM 38.1311 -85.0789 276° West 119 137 6,100  Level Indianapolis Center
11:08AM 38.1378 -85.1258 280° West 118 136 6,100  Level Indianapolis Center
11:09AM 38.1425 -85.1661 278° West 116 133 6,100  Level Indianapolis Center
11:10AM 38.1436 -85.2147 272° West 120 138 6,100  Level Indianapolis Center
11:11AM 38.1483 -85.2564 278° West 120 138 6,100  Level Indianapolis Center
11:12AM 38.1547 -85.2972 281° West 118 136 6,100  Level Indianapolis Center
11:14AM 38.1581 -85.3383 276° West 118 136 6,100  Level Indianapolis Center
11:15AM 38.1608 -85.3800 275° West 118 136 6,100  Level Indianapolis Center
11:16AM 38.1681 -85.4242 282° West 118 136 6,100 -60 Level Indianapolis Center
11:17AM 38.1725 -85.4633 278° West 119 137 6,000  Descending Indianapolis Center
11:18AM 38.1747 -85.5081 274° West 119 137 6,100  Climbing Indianapolis Center
11:19AM 38.1794 -85.5553 277° West 119 137 6,100 -60 Level Indianapolis Center
11:20AM 38.1847 -85.5972 279° West 120 138 6,000 -60 Descending Indianapolis Center
11:21AM 38.1911 -85.6389 281° West 120 138 6,000  Level Indianapolis Center
11:22AM 38.1956 -85.6811 278° West 121 139 6,100  Climbing Indianapolis Center
11:23AM 38.1978 -85.7233 274° West 120 138 6,100  Level Indianapolis Center
11:24AM 38.2047 -85.7650 282° West 120 138 6,100  Level Indianapolis Center
11:25AM 38.2103 -85.8081 279° West 121 139 6,100  Level Indianapolis Center
11:26AM 38.2150 -85.8606 277° West 123 142 6,100  Level Indianapolis Center
11:27AM 38.2178 -85.9044 275° West 124 143 6,100 -60 Level Indianapolis Center
11:28AM 38.2228 -85.9472 278° West 123 142 6,000 -60 Descending Indianapolis Center
11:29AM 38.2256 -85.9903 275° West 123 142 6,000  Level Indianapolis Center
11:30AM 38.2319 -86.0328 281° West 122 140 6,100  Climbing Indianapolis Center
11:31AM 38.2358 -86.0744 277° West 121 139 6,100  Level Indianapolis Center
11:32AM 38.2400 -86.1167 277° West 120 138 6,100  Level Indianapolis Center
11:33AM 38.2450 -86.1594 278° West 120 138 6,100 -60 Level Indianapolis Center
11:34AM 38.2500 -86.2108 277° West 121 139 6,000  Descending Indianapolis Center
11:35AM 38.2542 -86.2542 277° West 122 140 6,100  Climbing Indianapolis Center
11:36AM 38.2586 -86.2969 278° West 122 140 6,100  Level Indianapolis Center
11:37AM 38.2622 -86.3394 276° West 121 139 6,100  Level Indianapolis Center
11:38AM 38.2653 -86.3819 275° West 121 139 6,200  Climbing Indianapolis Center
11:39AM 38.2694 -86.4258 277° West 122 140 6,100 -120 Descending Indianapolis Center
11:40AM 38.2744 -86.4683 279° West 122 140 6,000  Descending Indianapolis Center
11:41AM 38.2786 -86.5128 277° West 124 143 6,100  Climbing Indianapolis Center
11:42AM 38.2839 -86.5653 277° West 124 143 6,000  Descending Indianapolis Center
11:43AM 38.2894 -86.6075 280° West 123 142 6,100  Climbing Indianapolis Center
11:44AM 38.2942 -86.6508 278° West 123 142 6,100 -60 Level Indianapolis Center
11:45AM 38.2989 -86.6944 278° West 123 142 6,000 -60 Descending Indianapolis Center
11:47AM 38.3025 -86.7381 276° West 123 142 6,000  Level Indianapolis Center
11:48AM 38.3061 -86.7814 276° West 124 143 6,100  Climbing Indianapolis Center
11:49AM 38.3103 -86.8242 277° West 122 140 6,000 -60 Descending Indianapolis Center
11:50AM 38.3156 -86.8769 277° West 124 143 6,000  Level Indianapolis Center
11:51AM 38.3172 -86.9214 273° West 125 144 6,100  Climbing Indianapolis Center
11:52AM 38.3211 -86.9656 276° West 126 145 6,000 -60 Descending Indianapolis Center
11:53AM 38.3253 -87.0094 277° West 125 144 6,000  Level Indianapolis Center
11:54AM 38.3294 -87.0519 277° West 124 143 6,000  Level Indianapolis Center
11:55AM 38.3342 -87.1019 277° West 124 143 6,000  Level Indianapolis Center
11:56AM 38.3367 -87.1442 274° West 122 140 6,000  Level Indianapolis Center
11:57AM 38.3414 -87.1892 278° West 124 143 6,000  Level Indianapolis Center
11:58AM 38.3453 -87.2331 276° West 125 144 6,000  Level Indianapolis Center
11:59AM 38.3492 -87.2761 277° West 124 143 6,100  Climbing Indianapolis Center
12:00PM 38.3533 -87.3189 277° West 123 142 6,100 -60 Level Indianapolis Center
12:01PM 38.3567 -87.3622 276° West 122 140 6,000 -60 Descending Indianapolis Center
12:02PM 38.3617 -87.4139 277° West 122 140 6,000  Level Indianapolis Center
12:03PM 38.3656 -87.4581 276° West 123 142 6,000  Level Indianapolis Center
12:04PM 38.3692 -87.5008 276° West 123 142 6,100  Climbing Indianapolis Center
12:05PM 38.3736 -87.5425 278° West 121 139 6,100 -60 Level Indianapolis Center
12:06PM 38.3767 -87.5864 275° West 121 139 6,000  Descending Indianapolis Center
12:07PM 38.3803 -87.6294 276° West 122 140 6,100  Climbing Indianapolis Center
12:08PM 38.3844 -87.6719 277° West 122 140 6,000  Descending Indianapolis Center
12:09PM 38.3894 -87.7247 277° West 123 142 6,100  Climbing Indianapolis Center
12:10PM 38.3925 -87.7669 275° West 121 139 6,100  Level Indianapolis Center
12:11PM 38.3961 -87.8089 276° West 120 138 6,100  Level Indianapolis Center
12:12PM 38.3997 -87.8511 276° West 120 138 6,100 -60 Level Indianapolis Center
12:13PM 38.4022 -87.8950 274° West 121 139 6,000 -60 Descending Indianapolis Center
12:14PM 38.4061 -87.9381 277° West 122 140 6,000  Level Indianapolis Center
12:15PM 38.4100 -87.9806 277° West 122 140 6,000  Level Indianapolis Center
12:16PM 38.4150 -88.0328 277° West 122 140 6,000  Level Indianapolis Center
12:17PM 38.4186 -88.0778 276° West 124 143 6,100  Climbing Indianapolis Center
12:19PM 38.4236 -88.1214 278° West 125 144 6,000 -60 Descending Indianapolis Center
12:20PM 38.4269 -88.1667 275° West 126 145 6,000  Level Indianapolis Center
12:21PM 38.4303 -88.2100 276° West 125 144 6,100  Climbing Indianapolis Center
12:22PM 38.4328 -88.2544 274° West 125 144 6,000 -120 Descending Indianapolis Center
12:23PM 38.4364 -88.2994 276° West 126 145 5,900  Descending Indianapolis Center
12:24PM 38.4403 -88.3433 276° West 125 144 6,100  Climbing Indianapolis Center
12:25PM 38.4447 -88.3958 276° West 124 143 6,000 -60 Descending Indianapolis Center
12:26PM 38.4467 -88.4400 273° West 125 144 6,000  Level Indianapolis Center
12:27PM 38.4511 -88.4856 277° West 126 145 6,000  Level Indianapolis Center
12:28PM 38.4556 -88.5294 277° West 126 145 6,000  Level Indianapolis Center
12:29PM 38.4597 -88.5736 277° West 125 144 6,000  Level Indianapolis Center
12:30PM 38.4644 -88.6456 275° West 125 144 6,000  Level Kansas City Center
12:31PM 38.4658 -88.6850 273° West 124 143 6,000  Level Kansas City Center
12:32PM 38.4686 -88.7300 275° West 125 144 6,000  Level Kansas City Center
12:33PM 38.4692 -88.7797 271° West 126 145 6,000  Level Kansas City Center
12:34PM 38.4678 -88.8281 268° West 127 146 6,000  Level Kansas City Center
12:35PM 38.4831 -88.8631 299° West 124 143 6,000  Level Kansas City Center
12:37PM 38.4822 -88.9075 269° West 124 143 6,000  Level Kansas City Center
12:38PM 38.4869 -88.9606 277° West 124 143 6,000  Level Kansas City Center
12:39PM 38.4906 -89.0000 277° West 127 146 6,000  Level Kansas City Center
12:40PM 38.4936 -89.0519 274° West 124 143 6,100  Climbing Kansas City Center
12:41PM 38.4961 -89.0964 274° West 124 143 6,000 -300 Descending Kansas City Center
12:42PM 38.4989 -89.1450 274° West 127 146 5,600 -420 Descending Kansas City Center
12:43PM 38.5039 -89.1911 278° West 134 154 5,200 -300 Descending Kansas City Center
12:44PM 38.5092 -89.2500 277° West 142 163 5,000 -120 Descending Kansas City Center
12:45PM 38.5128 -89.2989 275° West 141 162 5,000  Level Kansas City Center
12:46PM 38.5156 -89.3450 274° West 131 151 5,100  Climbing Kansas City Center
12:47PM 38.5189 -89.3964 275° West 133 153 5,000 -120 Descending Kansas City Center
12:48PM 38.5233 -89.4439 277° West 134 154 4,900 -300 Descending Kansas City Center
12:49PM 38.5269 -89.4997 275° West 146 168 4,500 -420 Descending Kansas City Center
12:50PM 38.5314 -89.5539 276° West 154 177 4,100 -300 Descending Kansas City Center
12:51PM 38.5344 -89.6097 274° West 148 170 4,000 -60 Descending Kansas City Center
12:52PM 38.5378 -89.6594 275° West 142 163 4,000  Level Kansas City Center
12:53PM 38.5408 -89.7022 275° West 142 163 4,100  Climbing Kansas City Center
12:54PM 38.5464 -89.7608 277° West 140 161 4,100  Level Kansas City Center
12:55PM 38.5492 -89.8117 274° West 142 163 4,100 -300 Level Kansas City Center
12:56PM 38.5514 -89.8631 273° West 143 165 3,600 -540 Descending Kansas City Center
12:57PM 38.5542 -89.9128 274° West 142 163 3,000 -480 Descending Kansas City Center
12:58PM 38.5556 -89.9617 272° West 140 161 2,700 -240 Descending Kansas City Center
12:59PM 38.5556 -90.0044 270° West 132 152 2,600 -300 Descending Kansas City Center
01:00PM 38.5547 -90.0569 269° West 125 144 2,100 -540 Descending Kansas City Center
01:01PM 38.5594 -90.0986 278° West 122 140 1,500 -480 Descending Kansas City Center
01:02PM 38.5744 -90.1325 300° West 116 133 1,200 -180 Descending Kansas City Center
01:03PM 38.5897 -90.1622 303° West 107 123 1,200 -180 Level Kansas City Center
01:04PM 38.5817 -90.1792 239° Southwest 87 100 900 -360 Descending Kansas City Center
01:05PM 38.5681 -90.1553 126° Southeast 78 90 500 -420 Descending Kansas City Center